sensor_id;sensor_type;location;lat;lon;timestamp;P1;durP1;ratioP1;P2;durP2;ratioP2
44145;SDS011;29809;52.432;4.780;2024-02-21T00:02:12;7.05;;;2.15;;
44145;SDS011;29809;52.432;4.780;2024-02-21T00:04:37;8.48;;;2.25;;
44145;SDS011;29809;52.432;4.780;2024-02-21T00:07:03;13.93;;;3.38;;
44145;SDS011;29809;52.432;4.780;2024-02-21T00:09:29;8.32;;;2.83;;
44145;SDS011;29809;52.432;4.780;2024-02-21T00:11:54;6.70;;;2.30;;
44145;SDS011;29809;52.432;4.780;2024-02-21T00:14:19;7.75;;;2.50;;
44145;SDS011;29809;52.432;4.780;2024-02-21T00:16:44;8.90;;;2.78;;
44145;SDS011;29809;52.432;4.780;2024-02-21T00:19:10;8.32;;;2.70;;
44145;SDS011;29809;52.432;4.780;2024-02-21T00:21:35;6.57;;;2.47;;
44145;SDS011;29809;52.432;4.780;2024-02-21T00:24:00;8.38;;;2.22;;
44145;SDS011;29809;52.432;4.780;2024-02-21T00:26:25;8.63;;;2.83;;
44145;SDS011;29809;52.432;4.780;2024-02-21T00:28:51;7.22;;;2.05;;
44145;SDS011;29809;52.432;4.780;2024-02-21T00:31:16;9.68;;;2.45;;
44145;SDS011;29809;52.432;4.780;2024-02-21T00:33:41;9.48;;;2.97;;
44145;SDS011;29809;52.432;4.780;2024-02-21T00:36:06;10.82;;;2.88;;
44145;SDS011;29809;52.432;4.780;2024-02-21T00:38:32;8.40;;;3.13;;
44145;SDS011;29809;52.432;4.780;2024-02-21T00:40:57;8.25;;;2.45;;
44145;SDS011;29809;52.432;4.780;2024-02-21T00:43:22;10.20;;;2.70;;
44145;SDS011;29809;52.432;4.780;2024-02-21T00:45:50;9.13;;;2.88;;
44145;SDS011;29809;52.432;4.780;2024-02-21T00:48:16;8.27;;;2.53;;
44145;SDS011;29809;52.432;4.780;2024-02-21T00:50:41;10.50;;;3.15;;
44145;SDS011;29809;52.432;4.780;2024-02-21T00:53:06;7.18;;;2.80;;
44145;SDS011;29809;52.432;4.780;2024-02-21T00:55:31;9.07;;;3.17;;
44145;SDS011;29809;52.432;4.780;2024-02-21T00:57:57;5.72;;;3.03;;
44145;SDS011;29809;52.432;4.780;2024-02-21T01:00:22;8.13;;;2.85;;
44145;SDS011;29809;52.432;4.780;2024-02-21T01:02:47;8.18;;;3.22;;
44145;SDS011;29809;52.432;4.780;2024-02-21T01:05:12;8.30;;;2.55;;
44145;SDS011;29809;52.432;4.780;2024-02-21T01:07:38;8.15;;;2.28;;
44145;SDS011;29809;52.432;4.780;2024-02-21T01:10:03;9.30;;;2.90;;
44145;SDS011;29809;52.432;4.780;2024-02-21T01:12:28;8.32;;;2.42;;
44145;SDS011;29809;52.432;4.780;2024-02-21T01:14:54;9.95;;;2.97;;
44145;SDS011;29809;52.432;4.780;2024-02-21T01:17:19;6.95;;;2.17;;
44145;SDS011;29809;52.432;4.780;2024-02-21T01:19:46;9.15;;;2.90;;
44145;SDS011;29809;52.432;4.780;2024-02-21T01:22:11;7.40;;;2.92;;
44145;SDS011;29809;52.432;4.780;2024-02-21T01:24:36;9.85;;;3.13;;
44145;SDS011;29809;52.432;4.780;2024-02-21T01:27:01;10.10;;;3.17;;
44145;SDS011;29809;52.432;4.780;2024-02-21T01:29:26;7.55;;;2.22;;
44145;SDS011;29809;52.432;4.780;2024-02-21T01:31:52;9.95;;;2.83;;
44145;SDS011;29809;52.432;4.780;2024-02-21T01:34:17;9.23;;;2.90;;
44145;SDS011;29809;52.432;4.780;2024-02-21T01:36:42;7.28;;;2.50;;
44145;SDS011;29809;52.432;4.780;2024-02-21T01:39:07;7.13;;;2.65;;
44145;SDS011;29809;52.432;4.780;2024-02-21T01:41:33;6.45;;;2.47;;
44145;SDS011;29809;52.432;4.780;2024-02-21T01:43:58;9.63;;;3.03;;
44145;SDS011;29809;52.432;4.780;2024-02-21T01:46:23;6.82;;;2.53;;
44145;SDS011;29809;52.432;4.780;2024-02-21T01:48:52;8.60;;;3.13;;
44145;SDS011;29809;52.432;4.780;2024-02-21T01:51:18;10.80;;;3.17;;
44145;SDS011;29809;52.432;4.780;2024-02-21T01:53:43;10.35;;;3.40;;
44145;SDS011;29809;52.432;4.780;2024-02-21T01:56:09;6.45;;;2.67;;
44145;SDS011;29809;52.432;4.780;2024-02-21T01:58:35;7.72;;;2.80;;
44145;SDS011;29809;52.432;4.780;2024-02-21T02:01:02;8.55;;;2.67;;
44145;SDS011;29809;52.432;4.780;2024-02-21T02:03:27;7.30;;;2.83;;
44145;SDS011;29809;52.432;4.780;2024-02-21T02:05:53;9.57;;;2.53;;
44145;SDS011;29809;52.432;4.780;2024-02-21T02:08:19;7.57;;;2.33;;
44145;SDS011;29809;52.432;4.780;2024-02-21T02:10:44;9.20;;;2.50;;
44145;SDS011;29809;52.432;4.780;2024-02-21T02:13:10;9.82;;;3.00;;
44145;SDS011;29809;52.432;4.780;2024-02-21T02:15:42;10.48;;;3.63;;
44145;SDS011;29809;52.432;4.780;2024-02-21T02:18:08;8.63;;;3.03;;
44145;SDS011;29809;52.432;4.780;2024-02-21T02:20:34;8.60;;;3.00;;
44145;SDS011;29809;52.432;4.780;2024-02-21T02:22:59;9.15;;;3.03;;
44145;SDS011;29809;52.432;4.780;2024-02-21T02:25:25;9.75;;;2.78;;
44145;SDS011;29809;52.432;4.780;2024-02-21T02:27:51;13.05;;;3.08;;
44145;SDS011;29809;52.432;4.780;2024-02-21T02:30:17;9.27;;;2.88;;
44145;SDS011;29809;52.432;4.780;2024-02-21T02:32:45;12.82;;;3.00;;
44145;SDS011;29809;52.432;4.780;2024-02-21T02:35:13;10.77;;;2.92;;
44145;SDS011;29809;52.432;4.780;2024-02-21T02:37:39;9.82;;;3.17;;
44145;SDS011;29809;52.432;4.780;2024-02-21T02:40:05;7.80;;;3.38;;
44145;SDS011;29809;52.432;4.780;2024-02-21T02:42:31;7.50;;;2.75;;
44145;SDS011;29809;52.432;4.780;2024-02-21T02:44:56;11.48;;;3.35;;
44145;SDS011;29809;52.432;4.780;2024-02-21T02:47:22;8.13;;;2.53;;
44145;SDS011;29809;52.432;4.780;2024-02-21T02:49:47;10.18;;;3.53;;
44145;SDS011;29809;52.432;4.780;2024-02-21T02:52:16;9.75;;;2.83;;
44145;SDS011;29809;52.432;4.780;2024-02-21T02:54:41;11.45;;;3.83;;
44145;SDS011;29809;52.432;4.780;2024-02-21T02:57:06;9.90;;;3.10;;
44145;SDS011;29809;52.432;4.780;2024-02-21T02:59:32;11.05;;;3.55;;
44145;SDS011;29809;52.432;4.780;2024-02-21T03:01:57;10.50;;;2.90;;
44145;SDS011;29809;52.432;4.780;2024-02-21T03:04:23;9.77;;;3.00;;
44145;SDS011;29809;52.432;4.780;2024-02-21T03:06:48;8.35;;;2.85;;
44145;SDS011;29809;52.432;4.780;2024-02-21T03:09:14;10.88;;;2.92;;
44145;SDS011;29809;52.432;4.780;2024-02-21T03:11:40;8.55;;;3.20;;
44145;SDS011;29809;52.432;4.780;2024-02-21T03:14:08;8.68;;;2.83;;
44145;SDS011;29809;52.432;4.780;2024-02-21T03:16:33;8.57;;;3.10;;
44145;SDS011;29809;52.432;4.780;2024-02-21T03:18:58;8.82;;;2.75;;
44145;SDS011;29809;52.432;4.780;2024-02-21T03:21:23;8.02;;;2.72;;
44145;SDS011;29809;52.432;4.780;2024-02-21T03:23:49;9.07;;;3.00;;
44145;SDS011;29809;52.432;4.780;2024-02-21T03:26:14;11.73;;;3.17;;
44145;SDS011;29809;52.432;4.780;2024-02-21T03:28:42;9.55;;;3.17;;
44145;SDS011;29809;52.432;4.780;2024-02-21T03:31:10;10.23;;;3.20;;
44145;SDS011;29809;52.432;4.780;2024-02-21T03:33:35;10.10;;;3.35;;
44145;SDS011;29809;52.432;4.780;2024-02-21T03:36:01;7.78;;;2.78;;
44145;SDS011;29809;52.432;4.780;2024-02-21T03:38:26;9.80;;;2.90;;
44145;SDS011;29809;52.432;4.780;2024-02-21T03:40:51;6.93;;;2.55;;
44145;SDS011;29809;52.432;4.780;2024-02-21T03:43:16;9.52;;;3.63;;
44145;SDS011;29809;52.432;4.780;2024-02-21T03:45:42;8.75;;;2.95;;
44145;SDS011;29809;52.432;4.780;2024-02-21T03:48:07;6.95;;;2.55;;
44145;SDS011;29809;52.432;4.780;2024-02-21T03:50:32;8.70;;;3.17;;
44145;SDS011;29809;52.432;4.780;2024-02-21T03:52:57;9.60;;;3.25;;
44145;SDS011;29809;52.432;4.780;2024-02-21T03:55:23;6.88;;;3.03;;
44145;SDS011;29809;52.432;4.780;2024-02-21T03:57:48;12.13;;;2.83;;
44145;SDS011;29809;52.432;4.780;2024-02-21T04:00:14;7.53;;;2.42;;
44145;SDS011;29809;52.432;4.780;2024-02-21T04:02:39;7.63;;;2.92;;
44145;SDS011;29809;52.432;4.780;2024-02-21T04:05:04;9.25;;;3.22;;
44145;SDS011;29809;52.432;4.780;2024-02-21T04:07:30;11.32;;;3.70;;
44145;SDS011;29809;52.432;4.780;2024-02-21T04:09:55;5.55;;;2.65;;
44145;SDS011;29809;52.432;4.780;2024-02-21T04:12:21;7.97;;;3.00;;
44145;SDS011;29809;52.432;4.780;2024-02-21T04:14:46;10.40;;;2.90;;
44145;SDS011;29809;52.432;4.780;2024-02-21T04:17:11;8.55;;;2.83;;
44145;SDS011;29809;52.432;4.780;2024-02-21T04:19:36;9.30;;;2.78;;
44145;SDS011;29809;52.432;4.780;2024-02-21T04:22:02;7.03;;;2.30;;
44145;SDS011;29809;52.432;4.780;2024-02-21T04:24:27;9.77;;;2.70;;
44145;SDS011;29809;52.432;4.780;2024-02-21T04:26:52;7.75;;;2.75;;
44145;SDS011;29809;52.432;4.780;2024-02-21T04:29:18;9.13;;;3.22;;
44145;SDS011;29809;52.432;4.780;2024-02-21T04:31:43;5.07;;;2.08;;
44145;SDS011;29809;52.432;4.780;2024-02-21T04:34:08;10.25;;;2.83;;
44145;SDS011;29809;52.432;4.780;2024-02-21T04:36:33;7.72;;;2.67;;
44145;SDS011;29809;52.432;4.780;2024-02-21T04:38:58;6.88;;;2.00;;
44145;SDS011;29809;52.432;4.780;2024-02-21T04:41:24;7.60;;;2.55;;
44145;SDS011;29809;52.432;4.780;2024-02-21T04:43:49;8.18;;;2.60;;
44145;SDS011;29809;52.432;4.780;2024-02-21T04:46:14;10.13;;;2.67;;
44145;SDS011;29809;52.432;4.780;2024-02-21T04:48:40;7.57;;;2.95;;
44145;SDS011;29809;52.432;4.780;2024-02-21T04:51:06;9.43;;;3.65;;
44145;SDS011;29809;52.432;4.780;2024-02-21T04:53:31;11.02;;;4.00;;
44145;SDS011;29809;52.432;4.780;2024-02-21T04:55:56;11.32;;;4.97;;
44145;SDS011;29809;52.432;4.780;2024-02-21T04:58:21;13.25;;;4.63;;
44145;SDS011;29809;52.432;4.780;2024-02-21T05:00:46;10.00;;;5.30;;
44145;SDS011;29809;52.432;4.780;2024-02-21T05:03:12;12.82;;;4.88;;
44145;SDS011;29809;52.432;4.780;2024-02-21T05:05:37;9.90;;;5.22;;
44145;SDS011;29809;52.432;4.780;2024-02-21T05:08:02;8.85;;;5.55;;
44145;SDS011;29809;52.432;4.780;2024-02-21T05:10:27;11.98;;;5.88;;
44145;SDS011;29809;52.432;4.780;2024-02-21T05:12:53;11.20;;;6.05;;
44145;SDS011;29809;52.432;4.780;2024-02-21T05:15:19;7.80;;;5.43;;
44145;SDS011;29809;52.432;4.780;2024-02-21T05:17:44;7.95;;;5.25;;
44145;SDS011;29809;52.432;4.780;2024-02-21T05:20:09;10.43;;;6.32;;
44145;SDS011;29809;52.432;4.780;2024-02-21T05:22:35;9.85;;;6.35;;
44145;SDS011;29809;52.432;4.780;2024-02-21T05:25:00;9.55;;;5.50;;
44145;SDS011;29809;52.432;4.780;2024-02-21T05:27:25;10.32;;;5.65;;
44145;SDS011;29809;52.432;4.780;2024-02-21T05:29:51;10.10;;;5.72;;
44145;SDS011;29809;52.432;4.780;2024-02-21T05:32:16;11.82;;;4.88;;
44145;SDS011;29809;52.432;4.780;2024-02-21T05:34:42;9.13;;;4.93;;
44145;SDS011;29809;52.432;4.780;2024-02-21T05:37:07;8.65;;;4.97;;
44145;SDS011;29809;52.432;4.780;2024-02-21T05:39:32;8.80;;;4.88;;
44145;SDS011;29809;52.432;4.780;2024-02-21T05:41:57;10.50;;;5.20;;
44145;SDS011;29809;52.432;4.780;2024-02-21T05:44:23;9.80;;;4.80;;
44145;SDS011;29809;52.432;4.780;2024-02-21T05:46:48;11.13;;;4.47;;
44145;SDS011;29809;52.432;4.780;2024-02-21T05:49:13;9.00;;;4.70;;
44145;SDS011;29809;52.432;4.780;2024-02-21T05:51:39;10.82;;;4.38;;
44145;SDS011;29809;52.432;4.780;2024-02-21T05:54:04;8.45;;;4.35;;
44145;SDS011;29809;52.432;4.780;2024-02-21T05:56:30;6.65;;;4.25;;
44145;SDS011;29809;52.432;4.780;2024-02-21T05:58:55;8.45;;;4.30;;
44145;SDS011;29809;52.432;4.780;2024-02-21T06:01:20;6.70;;;4.20;;
44145;SDS011;29809;52.432;4.780;2024-02-21T06:03:46;8.93;;;3.63;;
44145;SDS011;29809;52.432;4.780;2024-02-21T06:06:12;6.25;;;3.72;;
44145;SDS011;29809;52.432;4.780;2024-02-21T06:08:37;6.88;;;3.60;;
44145;SDS011;29809;52.432;4.780;2024-02-21T06:11:05;6.50;;;3.13;;
44145;SDS011;29809;52.432;4.780;2024-02-21T06:13:30;5.90;;;3.35;;
44145;SDS011;29809;52.432;4.780;2024-02-21T06:15:55;43.58;;;12.63;;
44145;SDS011;29809;52.432;4.780;2024-02-21T06:18:21;48.45;;;18.58;;
44145;SDS011;29809;52.432;4.780;2024-02-21T06:20:46;57.95;;;20.58;;
44145;SDS011;29809;52.432;4.780;2024-02-21T06:23:12;56.85;;;19.13;;
44145;SDS011;29809;52.432;4.780;2024-02-21T06:25:37;47.88;;;17.00;;
44145;SDS011;29809;52.432;4.780;2024-02-21T06:28:02;43.55;;;14.85;;
44145;SDS011;29809;52.432;4.780;2024-02-21T06:30:28;43.78;;;14.52;;
44145;SDS011;29809;52.432;4.780;2024-02-21T06:32:53;34.25;;;13.98;;
44145;SDS011;29809;52.432;4.780;2024-02-21T06:35:21;36.67;;;12.15;;
44145;SDS011;29809;52.432;4.780;2024-02-21T06:37:46;23.20;;;9.50;;
44145;SDS011;29809;52.432;4.780;2024-02-21T06:40:15;28.77;;;10.70;;
44145;SDS011;29809;52.432;4.780;2024-02-21T06:42:41;27.10;;;10.90;;
44145;SDS011;29809;52.432;4.780;2024-02-21T06:45:06;18.88;;;8.15;;
44145;SDS011;29809;52.432;4.780;2024-02-21T06:47:31;13.38;;;6.35;;
44145;SDS011;29809;52.432;4.780;2024-02-21T06:49:56;14.73;;;6.80;;
44145;SDS011;29809;52.432;4.780;2024-02-21T06:52:21;15.93;;;7.10;;
44145;SDS011;29809;52.432;4.780;2024-02-21T06:54:48;15.07;;;6.80;;
44145;SDS011;29809;52.432;4.780;2024-02-21T06:57:14;16.88;;;6.85;;
44145;SDS011;29809;52.432;4.780;2024-02-21T06:59:40;14.82;;;5.90;;
44145;SDS011;29809;52.432;4.780;2024-02-21T07:02:05;14.30;;;6.63;;
44145;SDS011;29809;52.432;4.780;2024-02-21T07:04:31;12.98;;;5.78;;
44145;SDS011;29809;52.432;4.780;2024-02-21T07:06:56;14.73;;;6.53;;
44145;SDS011;29809;52.432;4.780;2024-02-21T07:09:21;8.50;;;5.55;;
44145;SDS011;29809;52.432;4.780;2024-02-21T07:11:46;12.07;;;6.30;;
44145;SDS011;29809;52.432;4.780;2024-02-21T07:14:13;13.45;;;5.55;;
44145;SDS011;29809;52.432;4.780;2024-02-21T07:16:38;10.80;;;5.18;;
44145;SDS011;29809;52.432;4.780;2024-02-21T07:19:04;8.20;;;5.30;;
44145;SDS011;29809;52.432;4.780;2024-02-21T07:21:29;10.77;;;5.15;;
44145;SDS011;29809;52.432;4.780;2024-02-21T07:23:54;9.80;;;5.10;;
44145;SDS011;29809;52.432;4.780;2024-02-21T07:26:19;8.30;;;5.00;;
44145;SDS011;29809;52.432;4.780;2024-02-21T07:28:45;8.73;;;4.68;;
44145;SDS011;29809;52.432;4.780;2024-02-21T07:31:11;7.10;;;4.15;;
44145;SDS011;29809;52.432;4.780;2024-02-21T07:33:36;7.85;;;4.07;;
44145;SDS011;29809;52.432;4.780;2024-02-21T07:36:05;8.02;;;4.53;;
44145;SDS011;29809;52.432;4.780;2024-02-21T07:38:30;5.93;;;3.97;;
44145;SDS011;29809;52.432;4.780;2024-02-21T07:40:55;7.60;;;3.95;;
44145;SDS011;29809;52.432;4.780;2024-02-21T07:43:20;8.10;;;4.45;;
44145;SDS011;29809;52.432;4.780;2024-02-21T07:45:47;9.63;;;4.20;;
44145;SDS011;29809;52.432;4.780;2024-02-21T07:48:12;7.35;;;3.72;;
44145;SDS011;29809;52.432;4.780;2024-02-21T07:50:37;7.63;;;4.15;;
44145;SDS011;29809;52.432;4.780;2024-02-21T07:53:03;6.72;;;3.92;;
44145;SDS011;29809;52.432;4.780;2024-02-21T07:55:28;6.28;;;4.15;;
44145;SDS011;29809;52.432;4.780;2024-02-21T07:57:53;6.40;;;4.22;;
44145;SDS011;29809;52.432;4.780;2024-02-21T08:00:19;7.05;;;4.25;;
44145;SDS011;29809;52.432;4.780;2024-02-21T08:02:48;6.18;;;4.07;;
44145;SDS011;29809;52.432;4.780;2024-02-21T08:05:13;7.20;;;3.80;;
44145;SDS011;29809;52.432;4.780;2024-02-21T08:07:38;9.77;;;4.40;;
44145;SDS011;29809;52.432;4.780;2024-02-21T08:10:04;5.55;;;4.30;;
44145;SDS011;29809;52.432;4.780;2024-02-21T08:12:29;6.38;;;4.60;;
44145;SDS011;29809;52.432;4.780;2024-02-21T08:14:54;7.10;;;3.95;;
44145;SDS011;29809;52.432;4.780;2024-02-21T08:17:20;7.03;;;4.10;;
44145;SDS011;29809;52.432;4.780;2024-02-21T08:19:45;5.57;;;3.92;;
44145;SDS011;29809;52.432;4.780;2024-02-21T08:22:10;8.43;;;4.38;;
44145;SDS011;29809;52.432;4.780;2024-02-21T08:24:35;12.13;;;5.00;;
44145;SDS011;29809;52.432;4.780;2024-02-21T08:27:01;10.70;;;5.03;;
44145;SDS011;29809;52.432;4.780;2024-02-21T08:29:26;8.05;;;4.55;;
44145;SDS011;29809;52.432;4.780;2024-02-21T08:31:51;7.85;;;4.25;;
44145;SDS011;29809;52.432;4.780;2024-02-21T08:34:18;7.68;;;4.88;;
44145;SDS011;29809;52.432;4.780;2024-02-21T08:36:43;5.85;;;4.15;;
44145;SDS011;29809;52.432;4.780;2024-02-21T08:39:08;8.05;;;4.20;;
44145;SDS011;29809;52.432;4.780;2024-02-21T08:41:34;6.70;;;4.18;;
44145;SDS011;29809;52.432;4.780;2024-02-21T08:44:00;7.57;;;4.50;;
44145;SDS011;29809;52.432;4.780;2024-02-21T08:46:25;6.13;;;4.30;;
44145;SDS011;29809;52.432;4.780;2024-02-21T08:48:51;5.97;;;4.72;;
44145;SDS011;29809;52.432;4.780;2024-02-21T08:51:17;8.55;;;4.93;;
44145;SDS011;29809;52.432;4.780;2024-02-21T08:53:43;7.50;;;4.93;;
44145;SDS011;29809;52.432;4.780;2024-02-21T08:56:08;8.02;;;4.97;;
44145;SDS011;29809;52.432;4.780;2024-02-21T08:58:34;5.32;;;4.25;;
44145;SDS011;29809;52.432;4.780;2024-02-21T09:01:00;8.05;;;5.22;;
44145;SDS011;29809;52.432;4.780;2024-02-21T09:03:25;6.45;;;4.70;;
44145;SDS011;29809;52.432;4.780;2024-02-21T09:05:51;5.95;;;4.28;;
44145;SDS011;29809;52.432;4.780;2024-02-21T09:08:16;6.25;;;5.10;;
44145;SDS011;29809;52.432;4.780;2024-02-21T09:10:41;5.22;;;4.68;;
44145;SDS011;29809;52.432;4.780;2024-02-21T09:13:06;6.47;;;4.78;;
44145;SDS011;29809;52.432;4.780;2024-02-21T09:15:33;5.65;;;4.85;;
44145;SDS011;29809;52.432;4.780;2024-02-21T09:17:58;5.28;;;4.13;;
44145;SDS011;29809;52.432;4.780;2024-02-21T09:20:23;5.72;;;4.53;;
44145;SDS011;29809;52.432;4.780;2024-02-21T09:22:49;6.25;;;4.57;;
44145;SDS011;29809;52.432;4.780;2024-02-21T09:25:14;7.93;;;5.40;;
44145;SDS011;29809;52.432;4.780;2024-02-21T09:27:40;7.80;;;4.82;;
44145;SDS011;29809;52.432;4.780;2024-02-21T09:30:05;7.30;;;5.55;;
44145;SDS011;29809;52.432;4.780;2024-02-21T09:32:31;5.68;;;5.07;;
44145;SDS011;29809;52.432;4.780;2024-02-21T09:34:57;7.45;;;5.32;;
44145;SDS011;29809;52.432;4.780;2024-02-21T09:37:23;6.65;;;5.13;;
44145;SDS011;29809;52.432;4.780;2024-02-21T09:39:48;8.23;;;5.22;;
44145;SDS011;29809;52.432;4.780;2024-02-21T09:42:15;5.30;;;4.80;;
44145;SDS011;29809;52.432;4.780;2024-02-21T09:44:42;5.78;;;5.15;;
44145;SDS011;29809;52.432;4.780;2024-02-21T09:47:10;6.07;;;4.97;;
44145;SDS011;29809;52.432;4.780;2024-02-21T09:49:38;8.88;;;5.18;;
44145;SDS011;29809;52.432;4.780;2024-02-21T09:52:06;7.38;;;5.03;;
44145;SDS011;29809;52.432;4.780;2024-02-21T09:54:34;5.90;;;5.30;;
44145;SDS011;29809;52.432;4.780;2024-02-21T09:57:00;7.35;;;4.95;;
44145;SDS011;29809;52.432;4.780;2024-02-21T09:59:25;6.50;;;4.82;;
44145;SDS011;29809;52.432;4.780;2024-02-21T10:01:52;4.90;;;4.50;;
44145;SDS011;29809;52.432;4.780;2024-02-21T10:04:17;6.97;;;4.70;;
44145;SDS011;29809;52.432;4.780;2024-02-21T10:06:43;7.20;;;4.85;;
44145;SDS011;29809;52.432;4.780;2024-02-21T10:09:09;6.20;;;4.40;;
44145;SDS011;29809;52.432;4.780;2024-02-21T10:11:44;6.70;;;5.13;;
44145;SDS011;29809;52.432;4.780;2024-02-21T10:14:09;5.88;;;4.82;;
44145;SDS011;29809;52.432;4.780;2024-02-21T10:16:35;5.13;;;4.45;;
44145;SDS011;29809;52.432;4.780;2024-02-21T10:19:00;6.72;;;4.78;;
44145;SDS011;29809;52.432;4.780;2024-02-21T10:21:25;6.93;;;5.65;;
44145;SDS011;29809;52.432;4.780;2024-02-21T10:23:51;5.38;;;4.88;;
44145;SDS011;29809;52.432;4.780;2024-02-21T10:26:19;5.65;;;5.15;;
44145;SDS011;29809;52.432;4.780;2024-02-21T10:28:45;6.07;;;5.03;;
44145;SDS011;29809;52.432;4.780;2024-02-21T10:31:20;5.47;;;4.60;;
44145;SDS011;29809;52.432;4.780;2024-02-21T10:33:53;5.85;;;5.00;;
44145;SDS011;29809;52.432;4.780;2024-02-21T10:36:18;5.43;;;4.93;;
44145;SDS011;29809;52.432;4.780;2024-02-21T10:38:44;5.28;;;4.75;;
44145;SDS011;29809;52.432;4.780;2024-02-21T10:41:09;6.32;;;4.93;;
44145;SDS011;29809;52.432;4.780;2024-02-21T10:43:38;5.22;;;4.70;;
44145;SDS011;29809;52.432;4.780;2024-02-21T10:46:05;7.93;;;4.72;;
44145;SDS011;29809;52.432;4.780;2024-02-21T10:48:33;5.22;;;4.72;;
44145;SDS011;29809;52.432;4.780;2024-02-21T10:51:03;4.88;;;4.47;;
44145;SDS011;29809;52.432;4.780;2024-02-21T10:56:45;4.60;;;4.20;;
44145;SDS011;29809;52.432;4.780;2024-02-21T10:58:45;5.97;;;4.07;;
44145;SDS011;29809;52.432;4.780;2024-02-21T11:01:11;4.32;;;3.92;;
44145;SDS011;29809;52.432;4.780;2024-02-21T11:03:38;4.47;;;4.07;;
44145;SDS011;29809;52.432;4.780;2024-02-21T11:06:04;5.00;;;4.50;;
44145;SDS011;29809;52.432;4.780;2024-02-21T11:08:30;4.50;;;3.83;;
44145;SDS011;29809;52.432;4.780;2024-02-21T11:10:58;4.28;;;3.90;;
44145;SDS011;29809;52.432;4.780;2024-02-21T11:13:31;4.13;;;3.83;;
44145;SDS011;29809;52.432;4.780;2024-02-21T11:16:09;4.53;;;3.95;;
44145;SDS011;29809;52.432;4.780;2024-02-21T11:18:35;4.45;;;3.47;;
44145;SDS011;29809;52.432;4.780;2024-02-21T11:21:00;4.40;;;4.00;;
44145;SDS011;29809;52.432;4.780;2024-02-21T11:23:25;3.65;;;3.35;;
44145;SDS011;29809;52.432;4.780;2024-02-21T11:25:51;4.03;;;3.63;;
44145;SDS011;29809;52.432;4.780;2024-02-21T11:28:16;3.75;;;3.40;;
44145;SDS011;29809;52.432;4.780;2024-02-21T11:30:50;5.28;;;3.67;;
44145;SDS011;29809;52.432;4.780;2024-02-21T11:33:16;3.65;;;3.35;;
44145;SDS011;29809;52.432;4.780;2024-02-21T11:35:41;3.85;;;3.55;;
44145;SDS011;29809;52.432;4.780;2024-02-21T11:38:07;4.75;;;3.60;;
44145;SDS011;29809;52.432;4.780;2024-02-21T11:40:33;6.18;;;3.58;;
44145;SDS011;29809;52.432;4.780;2024-02-21T11:42:59;4.22;;;3.78;;
44145;SDS011;29809;52.432;4.780;2024-02-21T11:45:25;5.13;;;3.60;;
44145;SDS011;29809;52.432;4.780;2024-02-21T11:47:51;3.92;;;3.50;;
44145;SDS011;29809;52.432;4.780;2024-02-21T11:50:16;3.78;;;3.42;;
44145;SDS011;29809;52.432;4.780;2024-02-21T11:52:41;3.65;;;3.22;;
44145;SDS011;29809;52.432;4.780;2024-02-21T11:55:06;4.00;;;3.28;;
44145;SDS011;29809;52.432;4.780;2024-02-21T11:57:33;3.55;;;3.25;;
44145;SDS011;29809;52.432;4.780;2024-02-21T12:00:10;4.80;;;3.35;;
44145;SDS011;29809;52.432;4.780;2024-02-21T12:02:35;3.72;;;3.30;;
44145;SDS011;29809;52.432;4.780;2024-02-21T12:05:00;3.50;;;3.20;;
44145;SDS011;29809;52.432;4.780;2024-02-21T12:07:26;3.13;;;2.80;;
44145;SDS011;29809;52.432;4.780;2024-02-21T12:09:53;3.30;;;3.00;;
44145;SDS011;29809;52.432;4.780;2024-02-21T12:12:19;3.45;;;3.15;;
44145;SDS011;29809;52.432;4.780;2024-02-21T12:14:45;4.18;;;3.20;;
44145;SDS011;29809;52.432;4.780;2024-02-21T12:17:10;3.70;;;3.40;;
44145;SDS011;29809;52.432;4.780;2024-02-21T12:19:35;3.58;;;3.25;;
44145;SDS011;29809;52.432;4.780;2024-02-21T12:22:01;5.32;;;3.80;;
44145;SDS011;29809;52.432;4.780;2024-02-21T12:24:27;3.60;;;3.30;;
44145;SDS011;29809;52.432;4.780;2024-02-21T12:26:53;3.75;;;3.45;;
44145;SDS011;29809;52.432;4.780;2024-02-21T12:29:21;3.53;;;3.22;;
44145;SDS011;29809;52.432;4.780;2024-02-21T12:31:47;4.30;;;3.90;;
44145;SDS011;29809;52.432;4.780;2024-02-21T12:34:12;4.50;;;3.50;;
44145;SDS011;29809;52.432;4.780;2024-02-21T12:36:41;4.20;;;3.75;;
44145;SDS011;29809;52.432;4.780;2024-02-21T12:39:13;4.35;;;3.95;;
44145;SDS011;29809;52.432;4.780;2024-02-21T12:41:39;4.10;;;3.80;;
44145;SDS011;29809;52.432;4.780;2024-02-21T12:44:05;4.63;;;3.70;;
44145;SDS011;29809;52.432;4.780;2024-02-21T12:46:32;4.05;;;3.65;;
44145;SDS011;29809;52.432;4.780;2024-02-21T12:48:57;4.00;;;3.60;;
44145;SDS011;29809;52.432;4.780;2024-02-21T12:51:23;3.70;;;3.40;;
44145;SDS011;29809;52.432;4.780;2024-02-21T12:53:48;3.30;;;3.00;;
44145;SDS011;29809;52.432;4.780;2024-02-21T12:56:14;4.50;;;3.80;;
44145;SDS011;29809;52.432;4.780;2024-02-21T12:58:40;3.42;;;3.20;;
44145;SDS011;29809;52.432;4.780;2024-02-21T13:01:05;3.63;;;3.33;;
44145;SDS011;29809;52.432;4.780;2024-02-21T13:03:30;4.03;;;3.60;;
44145;SDS011;29809;52.432;4.780;2024-02-21T13:05:55;4.65;;;3.75;;
44145;SDS011;29809;52.432;4.780;2024-02-21T13:08:20;4.25;;;3.42;;
44145;SDS011;29809;52.432;4.780;2024-02-21T13:10:48;5.65;;;3.42;;
44145;SDS011;29809;52.432;4.780;2024-02-21T13:13:14;4.20;;;3.42;;
44145;SDS011;29809;52.432;4.780;2024-02-21T13:15:39;3.97;;;3.65;;
44145;SDS011;29809;52.432;4.780;2024-02-21T13:18:07;3.58;;;3.10;;
44145;SDS011;29809;52.432;4.780;2024-02-21T13:20:33;4.18;;;3.38;;
44145;SDS011;29809;52.432;4.780;2024-02-21T13:22:58;3.53;;;3.22;;
44145;SDS011;29809;52.432;4.780;2024-02-21T13:25:23;3.53;;;3.20;;
44145;SDS011;29809;52.432;4.780;2024-02-21T13:27:48;4.15;;;3.42;;
44145;SDS011;29809;52.432;4.780;2024-02-21T13:30:14;5.13;;;2.92;;
44145;SDS011;29809;52.432;4.780;2024-02-21T13:32:41;3.78;;;3.33;;
44145;SDS011;29809;52.432;4.780;2024-02-21T13:35:07;5.60;;;3.45;;
44145;SDS011;29809;52.432;4.780;2024-02-21T13:37:33;3.83;;;3.30;;
44145;SDS011;29809;52.432;4.780;2024-02-21T13:39:58;3.17;;;2.90;;
44145;SDS011;29809;52.432;4.780;2024-02-21T13:42:23;3.13;;;2.83;;
44145;SDS011;29809;52.432;4.780;2024-02-21T13:44:52;3.53;;;3.03;;
44145;SDS011;29809;52.432;4.780;2024-02-21T13:47:17;3.10;;;2.78;;
44145;SDS011;29809;52.432;4.780;2024-02-21T13:49:43;2.83;;;2.60;;
44145;SDS011;29809;52.432;4.780;2024-02-21T13:52:08;2.90;;;2.70;;
44145;SDS011;29809;52.432;4.780;2024-02-21T13:54:34;3.08;;;2.85;;
44145;SDS011;29809;52.432;4.780;2024-02-21T13:56:59;3.55;;;2.97;;
44145;SDS011;29809;52.432;4.780;2024-02-21T13:59:24;4.65;;;3.20;;
44145;SDS011;29809;52.432;4.780;2024-02-21T14:01:51;3.08;;;2.88;;
44145;SDS011;29809;52.432;4.780;2024-02-21T14:04:16;3.42;;;2.97;;
44145;SDS011;29809;52.432;4.780;2024-02-21T14:06:41;4.45;;;3.00;;
44145;SDS011;29809;52.432;4.780;2024-02-21T14:09:11;2.63;;;2.42;;
44145;SDS011;29809;52.432;4.780;2024-02-21T14:11:36;2.92;;;2.63;;
44145;SDS011;29809;52.432;4.780;2024-02-21T14:14:03;4.55;;;3.20;;
44145;SDS011;29809;52.432;4.780;2024-02-21T14:16:28;3.03;;;2.72;;
44145;SDS011;29809;52.432;4.780;2024-02-21T14:18:54;4.05;;;3.50;;
44145;SDS011;29809;52.432;4.780;2024-02-21T14:21:19;3.35;;;3.05;;
44145;SDS011;29809;52.432;4.780;2024-02-21T14:23:45;2.95;;;2.63;;
44145;SDS011;29809;52.432;4.780;2024-02-21T14:26:10;2.92;;;2.72;;
44145;SDS011;29809;52.432;4.780;2024-02-21T14:28:37;2.80;;;2.53;;
44145;SDS011;29809;52.432;4.780;2024-02-21T14:31:02;3.10;;;2.80;;
44145;SDS011;29809;52.432;4.780;2024-02-21T14:33:28;2.63;;;2.40;;
44145;SDS011;29809;52.432;4.780;2024-02-21T14:35:54;4.82;;;2.92;;
44145;SDS011;29809;52.432;4.780;2024-02-21T14:38:20;2.97;;;2.58;;
44145;SDS011;29809;52.432;4.780;2024-02-21T14:40:45;2.72;;;2.53;;